AYMO

Momote Airport

Papua New Guinea

AYMO 230000Z 18005KT 9999 BKN018 BKN140 25/25 Q1013 RERA

Observed Flight Rules
Aug-23 @ 00:00 UTC (12 hours ago)
 
Marginal Visual Flight Rules
Wind Visibility Clouds
180° at 5 knots 10,000+ meters
  • Broken at 1,800' AGL
  • Broken at 14,000' AGL
Temperatures Readings
Current 25°C / 77°F
Dewpoint 25°C / 77°F
Humidity 100%
Altimeter 29.91" Hg
Pressure 1013 hPa
Elevation 4
Observed Flight Rules
Aug-23 @ 00:00 UTC
(12 hours ago)
 
MVFR
Wind Visibility
180° at 5 knots 10,000+ meters
Clouds
  • Broken at 1,800' AGL
  • Broken at 14,000' AGL
Temperature Dewpoint
25°C / 77°F 25°C / 77°F
Humidity Altimeter Pressure
100% 29.91" Hg 1013 hPa